createdAt,value
2018-09-08T00:02:02.960Z,44.60
2018-09-08T00:04:32.123Z,44.60
2018-09-08T00:07:05.788Z,44.60
2018-09-08T00:09:34.201Z,44.70
2018-09-08T00:12:02.809Z,44.70
2018-09-08T00:14:31.241Z,44.70
2018-09-08T00:17:04.975Z,44.70
2018-09-08T00:19:38.807Z,44.70
2018-09-08T00:22:12.536Z,44.80
2018-09-08T00:24:46.431Z,44.80
2018-09-08T00:27:15.851Z,45.50
2018-09-08T00:29:48.835Z,44.80
2018-09-08T00:32:18.168Z,44.80
2018-09-08T00:34:46.598Z,44.80
2018-09-08T00:37:14.971Z,44.80
2018-09-08T00:39:44.008Z,44.80
2018-09-08T00:42:12.575Z,44.80
2018-09-08T00:44:40.947Z,44.80
2018-09-08T00:47:09.308Z,45.60
2018-09-08T00:49:38.156Z,45.30
2018-09-08T00:52:06.567Z,44.90
2018-09-08T00:54:34.932Z,44.90
2018-09-08T00:57:03.417Z,44.90
2018-09-08T00:59:31.769Z,45.00
2018-09-08T01:02:00.267Z,44.90
2018-09-08T01:04:28.633Z,45.00
2018-09-08T01:06:57.544Z,45.00
2018-09-08T01:09:26.037Z,45.00
2018-09-08T01:11:54.433Z,45.10
2018-09-08T01:14:22.808Z,45.20
2018-09-08T01:16:51.177Z,45.20
2018-09-08T01:19:19.676Z,45.30
2018-09-08T01:21:48.192Z,45.30
2018-09-08T01:24:16.575Z,45.30
2018-09-08T01:26:44.978Z,45.30
2018-09-08T01:29:13.365Z,45.30
2018-09-08T01:31:41.893Z,45.30
2018-09-08T01:34:10.377Z,45.30
2018-09-08T01:36:38.756Z,45.30
2018-09-08T01:39:07.628Z,45.40
2018-09-08T01:41:36.257Z,45.40
2018-09-08T01:44:05.271Z,45.40
2018-09-08T01:46:33.723Z,45.40
2018-09-08T01:49:02.140Z,45.40
2018-09-08T01:51:30.561Z,45.40
2018-09-08T01:53:59.123Z,45.40
2018-09-08T01:56:27.496Z,46.00
2018-09-08T01:58:55.904Z,45.50
2018-09-08T02:01:24.309Z,45.50
2018-09-08T02:03:52.677Z,45.60
2018-09-08T02:06:21.171Z,45.60
2018-09-08T02:08:49.586Z,46.20
2018-09-08T02:11:17.994Z,45.70
2018-09-08T02:13:46.348Z,45.70
2018-09-08T02:16:15.295Z,45.80
2018-09-08T02:18:43.763Z,45.80
2018-09-08T02:21:12.132Z,45.80
2018-09-08T02:23:40.612Z,45.90
2018-09-08T02:26:09.186Z,45.90
2018-09-08T02:28:37.580Z,46.00
2018-09-08T02:31:05.969Z,45.80
2018-09-08T02:33:34.493Z,45.90
2018-09-08T02:36:02.876Z,46.00
2018-09-08T02:38:32.233Z,45.90
2018-09-08T02:41:00.624Z,46.00
2018-09-08T02:43:28.991Z,46.00
2018-09-08T02:45:57.412Z,46.00
2018-09-08T02:48:26.020Z,45.90
2018-09-08T02:50:53.317Z,46.00
2018-09-08T02:53:20.611Z,46.00
2018-09-08T02:55:47.936Z,46.00
2018-09-08T02:58:15.414Z,46.00
2018-09-08T03:00:42.745Z,46.10
2018-09-08T03:03:10.076Z,46.00
2018-09-08T03:05:37.384Z,46.10
2018-09-08T03:08:04.672Z,46.10
2018-09-08T03:10:31.977Z,46.10
2018-09-08T03:12:59.272Z,46.10
2018-09-08T03:15:26.572Z,46.10
2018-09-08T03:17:53.920Z,46.10
2018-09-08T03:20:21.216Z,46.20
2018-09-08T03:22:48.523Z,46.20
2018-09-08T03:25:16.147Z,46.20
2018-09-08T03:27:43.436Z,46.30
2018-09-08T03:30:11.745Z,46.40
2018-09-08T03:32:39.100Z,46.40
2018-09-08T03:35:06.584Z,46.40
2018-09-08T03:37:33.911Z,46.30
2018-09-08T03:40:01.227Z,46.30
2018-09-08T03:42:28.534Z,46.40
2018-09-08T03:44:55.825Z,46.50
2018-09-08T03:47:23.116Z,46.40
2018-09-08T03:49:50.450Z,45.80
2018-09-08T03:52:17.791Z,46.40
2018-09-08T03:54:45.147Z,46.60
2018-09-08T03:57:12.468Z,46.50
2018-09-08T03:59:39.764Z,46.60
2018-09-08T04:02:07.053Z,46.60
2018-09-08T04:04:35.938Z,46.60
2018-09-08T04:07:04.333Z,46.60
2018-09-08T04:09:32.728Z,46.60
2018-09-08T04:12:01.104Z,46.70
2018-09-08T04:14:29.730Z,46.70
2018-09-08T04:16:58.270Z,46.80
2018-09-08T04:19:26.656Z,46.80
2018-09-08T04:21:55.031Z,46.80
2018-09-08T04:24:23.520Z,46.90
2018-09-08T04:26:52.330Z,46.90
2018-09-08T04:29:20.790Z,47.00
2018-09-08T04:31:49.391Z,47.00
2018-09-08T04:34:17.991Z,47.00
2018-09-08T04:36:46.385Z,47.10
2018-09-08T04:39:14.783Z,47.10
2018-09-08T04:41:43.201Z,47.10
2018-09-08T04:44:12.328Z,47.10
2018-09-08T04:46:40.697Z,47.10
2018-09-08T04:49:09.062Z,47.10
2018-09-08T04:51:38.244Z,47.10
2018-09-08T04:54:06.766Z,47.10
2018-09-08T04:56:35.122Z,47.10
2018-09-08T04:59:03.659Z,47.30
2018-09-08T05:01:32.396Z,47.40
2018-09-08T05:04:00.795Z,47.40
2018-09-08T05:06:29.227Z,48.20
2018-09-08T05:08:57.729Z,47.70
2018-09-08T05:11:26.085Z,47.60
2018-09-08T05:13:54.460Z,47.70
2018-09-08T05:16:22.905Z,47.70
2018-09-08T05:18:51.294Z,47.80
2018-09-08T05:21:19.828Z,47.80
2018-09-08T05:23:48.408Z,47.90
2018-09-08T05:26:16.794Z,48.00
2018-09-08T05:28:45.165Z,48.10
2018-09-08T05:31:13.538Z,48.10
2018-09-08T05:33:41.974Z,48.10
2018-09-08T05:36:10.692Z,48.20
2018-09-08T05:38:39.218Z,48.20
2018-09-08T05:41:08.272Z,48.20
2018-09-08T05:43:36.765Z,48.20
2018-09-08T05:46:05.155Z,48.20
2018-09-08T05:48:33.815Z,48.10
2018-09-08T05:51:02.217Z,48.00
2018-09-08T05:53:30.572Z,48.10
2018-09-08T05:55:58.968Z,48.00
2018-09-08T05:58:27.374Z,48.00
2018-09-08T06:00:55.762Z,48.10
2018-09-08T06:03:24.181Z,48.20
2018-09-08T06:05:52.822Z,48.10
2018-09-08T06:08:21.240Z,48.10
2018-09-08T06:10:49.628Z,48.10
2018-09-08T06:13:18.731Z,48.00
2018-09-08T06:15:47.172Z,48.10
2018-09-08T06:18:15.659Z,48.10
2018-09-08T06:20:44.325Z,48.20
2018-09-08T06:23:13.193Z,48.20
2018-09-08T06:25:41.596Z,48.20
2018-09-08T06:28:09.953Z,48.20
2018-09-08T06:30:38.536Z,48.20
2018-09-08T06:33:07.077Z,48.10
2018-09-08T06:35:35.471Z,48.10
2018-09-08T06:38:03.960Z,48.10
2018-09-08T06:40:32.415Z,48.20
2018-09-08T06:43:00.774Z,48.20
2018-09-08T06:45:29.181Z,48.20
2018-09-08T06:47:57.815Z,48.30
2018-09-08T06:50:26.364Z,48.20
2018-09-08T06:52:54.875Z,47.90
2018-09-08T06:55:23.240Z,48.30
2018-09-08T06:57:52.860Z,48.20
2018-09-08T07:00:21.492Z,48.10
2018-09-08T07:02:49.860Z,48.20
2018-09-08T07:05:18.643Z,48.10
2018-09-08T07:07:47.062Z,48.20
2018-09-08T07:10:15.857Z,48.20
2018-09-08T07:12:44.376Z,48.20
2018-09-08T07:15:13.086Z,48.20
2018-09-08T07:17:41.494Z,48.20
2018-09-08T07:20:09.964Z,48.20
2018-09-08T07:22:38.517Z,48.20
2018-09-08T07:25:08.184Z,48.20
2018-09-08T07:27:36.592Z,48.20
2018-09-08T07:30:05.552Z,48.30
2018-09-08T07:32:33.966Z,48.30
2018-09-08T07:35:02.333Z,48.20
2018-09-08T07:37:35.332Z,48.30
2018-09-08T07:40:03.960Z,48.30
2018-09-08T07:42:32.378Z,48.20
2018-09-08T07:45:01.166Z,48.20
2018-09-08T07:47:30.230Z,48.20
2018-09-08T07:49:58.808Z,48.20
2018-09-08T07:52:27.208Z,48.10
2018-09-08T07:54:55.717Z,48.10
2018-09-08T07:57:24.141Z,48.10
2018-09-08T07:59:52.734Z,47.90
2018-09-08T08:02:21.202Z,48.20
2018-09-08T08:04:50.288Z,48.20
2018-09-08T08:07:18.830Z,48.20
2018-09-08T08:09:47.244Z,48.20
2018-09-08T08:12:16.540Z,48.10
2018-09-08T08:14:44.960Z,48.10
2018-09-08T08:17:13.364Z,48.20
2018-09-08T08:19:42.429Z,48.20
2018-09-08T08:22:10.801Z,48.20
2018-09-08T08:24:39.358Z,48.20
2018-09-08T08:27:08.593Z,48.20
2018-09-08T08:29:37.200Z,48.20
2018-09-08T08:32:05.936Z,48.10
2018-09-08T08:34:34.620Z,48.00
2018-09-08T08:37:03.414Z,48.00
2018-09-08T08:39:32.432Z,48.00
2018-09-08T08:42:00.980Z,48.10
2018-09-08T08:44:29.392Z,48.10
2018-09-08T08:46:57.805Z,48.10
2018-09-08T08:49:26.204Z,48.00
2018-09-08T08:52:07.137Z,48.00
2018-09-08T08:54:46.515Z,48.10
2018-09-08T08:57:15.196Z,48.00
2018-09-08T08:59:45.143Z,48.10
2018-09-08T09:02:13.672Z,48.20
2018-09-08T09:04:42.868Z,48.20
2018-09-08T09:07:12.878Z,48.10
2018-09-08T09:09:42.389Z,48.10
2018-09-08T09:12:10.748Z,48.20
2018-09-08T09:14:39.324Z,48.20
2018-09-08T09:17:08.330Z,48.20
2018-09-08T09:19:48.256Z,48.10
2018-09-08T09:22:28.760Z,48.00
2018-09-08T09:25:03.400Z,47.90
2018-09-08T09:27:33.332Z,48.00
2018-09-08T09:30:02.117Z,48.00
2018-09-08T09:32:30.521Z,48.00
2018-09-08T09:34:58.903Z,48.00
2018-09-08T09:37:27.351Z,48.00
2018-09-08T09:39:56.628Z,48.00
2018-09-08T09:42:25.025Z,47.90
2018-09-08T09:44:53.545Z,47.90
2018-09-08T09:47:22.132Z,47.80
2018-09-08T09:49:50.555Z,47.80
2018-09-08T09:52:18.959Z,47.90
2018-09-08T09:54:47.502Z,47.90
2018-09-08T09:57:15.881Z,47.20
2018-09-08T09:59:44.361Z,47.90
2018-09-08T10:02:44.912Z,47.80
2018-09-08T10:05:18.720Z,47.80
2018-09-08T10:07:49.408Z,47.80
2018-09-08T10:10:19.455Z,47.80
2018-09-08T10:12:47.876Z,47.80
2018-09-08T10:15:16.692Z,47.60
2018-09-08T10:17:45.722Z,47.50
2018-09-08T10:20:15.567Z,47.40
2018-09-08T10:22:43.947Z,47.30
2018-09-08T10:25:19.890Z,47.10
2018-09-08T10:27:48.817Z,46.50
2018-09-08T10:30:17.932Z,47.00
2018-09-08T10:32:47.524Z,47.10
2018-09-08T10:35:16.580Z,47.00
2018-09-08T10:37:45.697Z,46.90
2018-09-08T10:40:15.772Z,46.80
2018-09-08T10:42:44.930Z,46.80
2018-09-08T10:45:13.358Z,46.80
2018-09-08T10:47:43.004Z,46.70
2018-09-08T10:50:12.145Z,46.50
2018-09-08T10:52:46.358Z,46.60
2018-09-08T10:55:14.757Z,46.40
2018-09-08T10:57:43.189Z,46.30
2018-09-08T11:00:12.469Z,46.30
2018-09-08T11:02:41.398Z,46.20
2018-09-08T11:05:10.003Z,46.40
2018-09-08T11:07:39.135Z,46.30
2018-09-08T11:10:07.603Z,46.10
2018-09-08T11:12:36.066Z,45.20
2018-09-08T11:15:04.898Z,45.80
2018-09-08T11:17:33.299Z,45.70
2018-09-08T11:20:01.781Z,45.70
2018-09-08T11:22:30.280Z,45.80
2018-09-08T11:24:58.890Z,45.70
2018-09-08T11:27:27.356Z,45.80
2018-09-08T11:29:56.248Z,45.70
2018-09-08T11:32:24.838Z,45.70
2018-09-08T11:34:53.415Z,45.60
2018-09-08T11:37:22.425Z,45.50
2018-09-08T11:39:50.869Z,45.30
2018-09-08T11:42:19.260Z,45.30
2018-09-08T11:44:48.594Z,45.30
2018-09-08T11:47:17.217Z,45.50
2018-09-08T11:49:46.781Z,45.50
2018-09-08T11:52:15.500Z,45.40
2018-09-08T11:54:43.948Z,46.00
2018-09-08T11:57:12.333Z,45.40
2018-09-08T11:59:40.808Z,45.40
2018-09-08T12:02:09.997Z,45.50
2018-09-08T12:04:38.469Z,45.40
2018-09-08T12:07:06.964Z,45.40
2018-09-08T12:09:35.845Z,45.40
2018-09-08T12:12:04.268Z,45.50
2018-09-08T12:14:32.857Z,45.60
2018-09-08T12:17:01.417Z,46.20
2018-09-08T12:19:30.467Z,45.60
2018-09-08T12:21:58.864Z,45.60
2018-09-08T12:24:27.414Z,45.60
2018-09-08T12:26:55.947Z,45.70
2018-09-08T12:29:24.352Z,45.80
2018-09-08T12:31:52.761Z,45.80
2018-09-08T12:34:21.160Z,46.60
2018-09-08T12:36:49.585Z,45.90
2018-09-08T12:39:17.996Z,45.90
2018-09-08T12:41:47.333Z,46.00
2018-09-08T12:44:15.945Z,46.10
2018-09-08T12:46:44.632Z,46.20
2018-09-08T12:49:13.199Z,46.20
2018-09-08T12:51:41.813Z,46.20
2018-09-08T12:54:10.380Z,46.30
2018-09-08T12:56:38.930Z,46.40
2018-09-08T12:59:07.397Z,46.40
2018-09-08T13:01:35.821Z,46.40
2018-09-08T13:04:04.572Z,46.40
2018-09-08T13:06:33.110Z,46.40
2018-09-08T13:09:01.761Z,46.30
2018-09-08T13:11:30.278Z,46.50
2018-09-08T13:13:59.247Z,46.40
2018-09-08T13:16:27.861Z,46.40
2018-09-08T13:18:56.894Z,46.60
2018-09-08T13:21:25.580Z,46.70
2018-09-08T13:23:54.579Z,46.70
2018-09-08T13:26:22.913Z,46.80
2018-09-08T13:28:51.408Z,46.90
2018-09-08T13:31:19.865Z,47.00
2018-09-08T13:33:48.450Z,47.00
2018-09-08T13:36:16.799Z,47.10
2018-09-08T13:38:45.549Z,47.20
2018-09-08T13:41:14.081Z,47.30
2018-09-08T13:43:42.588Z,47.30
2018-09-08T13:46:10.968Z,47.30
2018-09-08T13:48:39.520Z,47.50
2018-09-08T13:51:08.153Z,47.50
2018-09-08T13:53:37.108Z,47.50
2018-09-08T13:56:06.064Z,48.20
2018-09-08T13:58:34.614Z,47.60
2018-09-08T14:01:03.180Z,48.20
2018-09-08T14:03:32.234Z,47.70
2018-09-08T14:06:00.973Z,47.70
2018-09-08T14:08:29.524Z,47.80
2018-09-08T14:10:58.286Z,47.80
2018-09-08T14:13:26.889Z,47.80
2018-09-08T14:15:55.531Z,47.80
2018-09-08T14:18:23.960Z,47.70
2018-09-08T14:20:52.388Z,47.60
2018-09-08T14:23:20.962Z,47.60
2018-09-08T14:25:49.538Z,47.50
2018-09-08T14:28:18.089Z,47.40
2018-09-08T14:30:46.652Z,47.30
2018-09-08T14:33:15.169Z,47.60
2018-09-08T14:35:43.715Z,47.00
2018-09-08T14:38:12.442Z,47.00
2018-09-08T14:40:40.812Z,47.10
2018-09-08T14:43:09.486Z,47.30
2018-09-08T14:45:38.190Z,47.30
2018-09-08T14:48:06.628Z,47.40
2018-09-08T14:50:35.045Z,47.40
2018-09-08T14:53:03.635Z,47.50
2018-09-08T14:55:36.185Z,47.60
2018-09-08T14:58:04.565Z,47.70
2018-09-08T15:00:33.708Z,47.70
2018-09-08T15:03:02.178Z,47.70
2018-09-08T15:05:30.622Z,47.80
2018-09-08T15:07:59.196Z,47.80
2018-09-08T15:10:28.043Z,47.80
2018-09-08T15:12:56.440Z,47.60
2018-09-08T15:15:24.835Z,47.70
2018-09-08T15:17:53.548Z,47.80
2018-09-08T15:20:22.038Z,47.80
2018-09-08T15:22:50.653Z,47.70
2018-09-08T15:25:19.127Z,47.70
2018-09-08T15:27:48.291Z,47.80
2018-09-08T15:30:16.890Z,47.80
2018-09-08T15:32:45.276Z,47.70
2018-09-08T15:35:13.934Z,47.70
2018-09-08T15:37:42.539Z,47.80
2018-09-08T15:40:11.038Z,47.70
2018-09-08T15:42:39.435Z,47.70
2018-09-08T15:45:08.018Z,47.70
2018-09-08T15:47:36.533Z,47.70
2018-09-08T15:50:05.955Z,47.90
2018-09-08T15:52:34.449Z,47.80
2018-09-08T15:55:02.877Z,47.90
2018-09-08T15:57:31.253Z,47.80
2018-09-08T15:59:59.824Z,47.80
2018-09-08T16:02:28.370Z,47.80
2018-09-08T16:04:56.865Z,47.90
2018-09-08T16:07:25.385Z,47.90
2018-09-08T16:09:53.905Z,47.90
2018-09-08T16:12:23.185Z,47.90
2018-09-08T16:14:51.685Z,48.00
2018-09-08T16:17:21.417Z,48.00
2018-09-08T16:19:50.184Z,48.10
2018-09-08T16:22:18.612Z,48.00
2018-09-08T16:24:47.301Z,48.10
2018-09-08T16:27:15.912Z,48.00
2018-09-08T16:29:44.335Z,48.10
2018-09-08T16:32:12.878Z,48.00
2018-09-08T16:34:43.329Z,48.00
2018-09-08T16:37:11.987Z,47.90
2018-09-08T16:39:40.642Z,47.90
2018-09-08T16:42:09.129Z,48.00
2018-09-08T16:44:37.781Z,47.80
2018-09-08T16:47:06.253Z,47.90
2018-09-08T16:49:34.976Z,47.70
2018-09-08T16:52:03.463Z,47.80
2018-09-08T16:54:31.988Z,47.80
2018-09-08T16:57:00.430Z,47.80
2018-09-08T16:59:28.820Z,47.80
2018-09-08T17:01:57.312Z,47.70
2018-09-08T17:04:25.948Z,47.70
2018-09-08T17:06:55.165Z,47.70
2018-09-08T17:09:23.655Z,47.80
2018-09-08T17:11:52.181Z,47.80
2018-09-08T17:14:20.596Z,46.70
2018-09-08T17:16:49.081Z,47.90
2018-09-08T17:19:17.512Z,48.00
2018-09-08T17:21:45.933Z,48.20
2018-09-08T17:24:14.698Z,47.90
2018-09-08T17:26:43.112Z,47.90
2018-09-08T17:29:11.581Z,47.90
2018-09-08T17:31:40.173Z,47.90
2018-09-08T17:34:08.553Z,47.90
2018-09-08T17:36:36.963Z,48.00
2018-09-08T17:39:08.100Z,47.90
2018-09-08T17:41:36.480Z,47.80
2018-09-08T17:44:05.014Z,47.80
2018-09-08T17:46:34.320Z,47.60
2018-09-08T17:49:02.844Z,47.60
2018-09-08T17:51:31.766Z,47.60
2018-09-08T17:54:00.492Z,47.70
2018-09-08T17:56:28.858Z,47.70
2018-09-08T17:58:57.439Z,47.70
2018-09-08T18:01:25.840Z,47.60
2018-09-08T18:03:54.329Z,47.80
2018-09-08T18:06:22.869Z,47.70
2018-09-08T18:08:51.380Z,47.70
2018-09-08T18:11:20.114Z,47.80
2018-09-08T18:13:48.783Z,48.10
2018-09-08T18:16:17.239Z,47.70
2018-09-08T18:18:45.694Z,47.50
2018-09-08T18:21:14.397Z,47.80
2018-09-08T18:23:43.127Z,47.10
2018-09-08T18:26:12.314Z,47.40
2018-09-08T18:28:40.741Z,47.50
2018-09-08T18:31:09.164Z,48.10
2018-09-08T18:33:38.755Z,47.30
2018-09-08T18:36:07.431Z,47.40
2018-09-08T18:38:35.990Z,47.30
2018-09-08T18:41:04.504Z,47.30
2018-09-08T18:43:33.089Z,47.30
2018-09-08T18:46:02.126Z,47.30
2018-09-08T18:48:30.521Z,47.30
2018-09-08T18:50:58.993Z,47.20
2018-09-08T18:53:27.400Z,47.20
2018-09-08T18:55:56.252Z,47.30
2018-09-08T18:58:25.146Z,47.20
2018-09-08T19:00:53.848Z,47.20
2018-09-08T19:03:22.308Z,47.30
2018-09-08T19:05:50.780Z,47.30
2018-09-08T19:08:20.639Z,47.30
2018-09-08T19:10:49.038Z,47.30
2018-09-08T19:13:17.493Z,47.20
2018-09-08T19:15:46.230Z,47.30
2018-09-08T19:18:14.942Z,47.30
2018-09-08T19:20:43.476Z,47.30
2018-09-08T19:23:11.995Z,47.30
2018-09-08T19:25:40.849Z,47.30
2018-09-08T19:28:09.256Z,47.90
2018-09-08T19:30:38.413Z,47.30
2018-09-08T19:33:06.925Z,47.40
2018-09-08T19:35:36.665Z,47.30
2018-09-08T19:38:05.863Z,47.30
2018-09-08T19:40:40.107Z,47.30
2018-09-08T19:43:08.802Z,47.30
2018-09-08T19:45:37.564Z,47.30
2018-09-08T19:48:09.537Z,47.40
2018-09-08T19:50:38.365Z,47.40
2018-09-08T19:53:12.223Z,47.50
2018-09-08T19:55:41.194Z,47.40
2018-09-08T19:58:15.276Z,47.50
2018-09-08T20:00:44.837Z,47.50
2018-09-08T20:03:13.692Z,47.60
2018-09-08T20:05:42.267Z,47.50
2018-09-08T20:08:10.993Z,47.50
2018-09-08T20:10:39.419Z,47.50
2018-09-08T20:13:07.936Z,47.50
2018-09-08T20:15:36.345Z,47.50
2018-09-08T20:18:04.729Z,47.50
2018-09-08T20:20:33.159Z,47.50
2018-09-08T20:23:01.602Z,47.50
2018-09-08T20:25:29.993Z,47.50
2018-09-08T20:27:58.415Z,47.50
2018-09-08T20:30:27.304Z,47.50
2018-09-08T20:32:55.954Z,47.60
2018-09-08T20:35:24.565Z,47.60
2018-09-08T20:37:53.012Z,47.60
2018-09-08T20:40:21.588Z,47.60
2018-09-08T20:42:49.986Z,47.60
2018-09-08T20:45:18.376Z,47.60
2018-09-08T20:47:47.792Z,47.60
2018-09-08T20:50:16.335Z,47.60
2018-09-08T20:52:44.668Z,47.60
2018-09-08T20:55:13.030Z,47.70
2018-09-08T20:57:41.434Z,47.70
2018-09-08T21:00:10.450Z,47.70
2018-09-08T21:02:38.827Z,47.70
2018-09-08T21:05:07.508Z,47.60
2018-09-08T21:07:36.152Z,47.70
2018-09-08T21:10:04.525Z,47.60
2018-09-08T21:12:33.399Z,47.70
2018-09-08T21:15:01.787Z,47.60
2018-09-08T21:17:30.152Z,47.70
2018-09-08T21:19:58.542Z,47.60
2018-09-08T21:22:27.456Z,47.60
2018-09-08T21:24:56.232Z,47.60
2018-09-08T21:27:24.600Z,47.70
2018-09-08T21:29:52.997Z,47.60
2018-09-08T21:32:21.372Z,48.10
2018-09-08T21:34:49.954Z,47.70
2018-09-08T21:37:19.308Z,47.80
2018-09-08T21:39:47.687Z,47.80
2018-09-08T21:42:16.333Z,47.80
2018-09-08T21:44:44.769Z,47.80
2018-09-08T21:47:13.274Z,47.80
2018-09-08T21:49:41.672Z,47.70
2018-09-08T21:52:10.785Z,47.70
2018-09-08T21:54:39.181Z,47.80
2018-09-08T21:57:07.630Z,47.70
2018-09-08T21:59:36.199Z,47.80
2018-09-08T22:02:04.548Z,47.80
2018-09-08T22:04:32.938Z,47.80
2018-09-08T22:07:01.576Z,47.90
2018-09-08T22:09:30.267Z,47.90
2018-09-08T22:11:58.636Z,47.90
2018-09-08T22:14:27.175Z,47.90
2018-09-08T22:16:55.672Z,47.90
2018-09-08T22:19:24.107Z,47.90
2018-09-08T22:21:52.483Z,47.40
2018-09-08T22:24:21.020Z,48.00
2018-09-08T22:26:49.509Z,48.00
2018-09-08T22:29:18.158Z,48.00
2018-09-08T22:31:46.512Z,48.00
2018-09-08T22:34:14.988Z,48.00
2018-09-08T22:36:43.503Z,48.00
2018-09-08T22:39:12.024Z,48.00
2018-09-08T22:41:40.408Z,48.00
2018-09-08T22:44:08.929Z,48.00
2018-09-08T22:46:37.409Z,48.00
2018-09-08T22:49:06.049Z,48.20
2018-09-08T22:51:34.408Z,48.20
2018-09-08T22:54:02.807Z,48.30
2018-09-08T22:56:31.154Z,48.50
